world map with TRW marked

TRW - Airport

This information may not be accurate or current and is not valid for navigation or flight planning. No warranty of fitness for any purpose is made or implied.

flag of Kiribati

Donate via PayPal

Additional information is available on the NEW Great Circle Mapper

Location
City:  Tarawa Island, Kiribati
Name:Bonriki International Airport
ICAO / IATA:NGTA / TRW

Details
Type:Airport (Aerodrome, Airfield)
Latitude:1°22'54"N (1.381636)
Longitude:173°08'49"E (173.147036)
Datum:WGS 1984
Elevation:9 ft (3 m)
Runways:1
Longest:6598 × 135 ft (2011 × 41 m)

Time
Timezone:UTC+12
Local Time:

Weather
METAR:NGTA  (expired)
TAF:NGTA  291006Z 2912/3012 08008KT 9999 -SHRA SCT020 SCT040 PROB30 TEMPO 2915/2918 5000 TSRA BKN016 FEW018CB

Related Locations
Nearby:
Farthest:CPA: 12031 mi / 19362 km
Cape Palmas [A. Tubman], LR

Find:

   beyond  
but within

Other Information
Maps:
Links:
Sources:

  


 


Great Circle Mapper   Great Circle Mapper
Great Circle Mapper FAQ   Great Circle Mapper FAQ
  Karl's Home Page
KLSē   KLSē Home
   GC on Facebook
Airlines of the World   Airlines of the World
Donate via PayPal


Copyright © 2004-2014, Karl L. Swartz. All rights reserved.
All trademarks mentioned herein belong to their respective owners.

Please see credits for attribution and copyright information.

Karl Swartz <karl@kls2.com>
  Powered by FreeBSD
Valid HTML 4.01!
Labeled with ICRA
hCard Microformat
Geo Microformat